CYYE

Fort Nelson Airport

Fort Nelson, British Columbia, Canada
TAF CYYE 211838Z 2119/2207 35008KT P6SM BKN080 BKN120 BKN200 FM212300 32010KT P6SM SCT040 BKN080 TEMPO 2123/2207 P6SM -SHRA VCTS BKN040CB BKN080 RMK NXT FCST BY 220100Z
Issued Valid From Valid To
Jul-21 @ 18:38 UTC
(5 hours ago)
Jul-21 @ 19:00 UTC
(4 hours ago)
Jul-22 @ 07:00 UTC
(in 8 hours)
Expired Click to View Jul-21 @ 19:00 to Jul-21 @ 23:00
TAF CYYE 211838Z 2119/2207 35008KT P6SM BKN080 BKN120 BKN200
Wind Visibility Clouds
350° at 8 knots Greater than 6 miles
  • Broken at 8,000' AGL
  • Broken at 12,000' AGL
  • Broken at 20,000' AGL
From Jul-21 @ 23:00 to Jul-22 @ 07:00
FM212300 32010KT P6SM SCT040 BKN080
Wind Visibility Clouds
320° at 10 knots Greater than 6 miles
  • Scattered at 4,000' AGL
  • Broken at 8,000' AGL
Temporary Jul-21 @ 23:00 to Jul-22 @ 07:00
TEMPO 2123/2207 P6SM -SHRA VCTS BKN040CB BKN080 RMK NXT FCST BY 220100Z
Visibility Clouds Conditions
Greater than 6 miles
  • Broken at 4,000' AGL
  • Broken at 8,000' AGL
  • Light Rain
  • Area Thunderstorm
TAF CYYE 211838Z 2119/2207 35008KT P6SM BKN080 BKN120 BKN200 FM212300 32010KT P6SM SCT040 BKN080 TEMPO 2123/2207 P6SM -SHRA VCTS BKN040CB BKN080 RMK NXT FCST BY 220100Z
Issued Jul-21 @ 18:38 UTC
(5 hours ago)
Valid From Jul-21 @ 19:00 UTC
(4 hours ago)
Valid To Jul-22 @ 07:00 UTC
(in 8 hours)
Jul-21 @ 19:00 - Jul-21 @ 23:00
Wind Visibility
350° at 8 knots Greater than 6 miles
Clouds
  • Broken at 8,000' AGL
  • Broken at 12,000' AGL
  • Broken at 20,000' AGL
From Jul-21 @ 23:00 - Jul-22 @ 07:00
Wind Visibility
320° at 10 knots Greater than 6 miles
Clouds
  • Scattered at 4,000' AGL
  • Broken at 8,000' AGL
Temporary Jul-21 @ 23:00 - Jul-22 @ 07:00
Clouds
  • Broken at 4,000' AGL
  • Broken at 8,000' AGL
Conditions
  • Light Rain
  • Area Thunderstorm